Terminal Aerodrome Forecast
Issued by NWS Greer, SC

Home | Current Version | Previous Version | Text Only | Print | Product List | Glossary On
Versions: 1 2 3 4 5 6 7 8 9 10 11 12 13 14 15 16 17 18
000
FTUS42 KGSP 081239 AAA
TAFAVL
TAF AMD
KAVL 081239Z 0813/0912 34014G21KT P6SM SCT025 OVC100
     FM081400 34015G25KT P6SM BKN100
     FM082000 34018G28KT P6SM SCT200=

USA.gov is the U.S. government's official web portal to all federal, state and local government web resources and services.